sensor_id;sensor_type;location;lat;lon;timestamp;P1;durP1;ratioP1;P2;durP2;ratioP2
64609;SDS011;51019;46.090;6.350;2024-03-23T00:54:49;12.43;;;3.20;;
64609;SDS011;51019;46.090;6.350;2024-03-23T00:57:16;11.35;;;3.45;;
64609;SDS011;51019;46.090;6.350;2024-03-23T00:59:42;11.77;;;3.67;;
64609;SDS011;51019;46.090;6.350;2024-03-23T01:02:09;10.50;;;2.75;;
64609;SDS011;51019;46.090;6.350;2024-03-23T01:04:36;12.48;;;3.53;;
64609;SDS011;51019;46.090;6.350;2024-03-23T01:07:03;11.73;;;3.83;;
64609;SDS011;51019;46.090;6.350;2024-03-23T01:09:29;11.35;;;3.67;;
64609;SDS011;51019;46.090;6.350;2024-03-23T01:11:59;8.98;;;2.10;;
64609;SDS011;51019;46.090;6.350;2024-03-23T01:14:25;10.27;;;2.95;;
64609;SDS011;51019;46.090;6.350;2024-03-23T01:16:52;13.02;;;3.85;;
64609;SDS011;51019;46.090;6.350;2024-03-23T01:19:17;12.48;;;3.80;;
64609;SDS011;51019;46.090;6.350;2024-03-23T01:21:44;10.73;;;3.55;;
64609;SDS011;51019;46.090;6.350;2024-03-23T01:24:10;8.10;;;2.15;;
64609;SDS011;51019;46.090;6.350;2024-03-23T01:26:37;10.80;;;3.40;;
64609;SDS011;51019;46.090;6.350;2024-03-23T01:29:05;10.82;;;3.30;;
64609;SDS011;51019;46.090;6.350;2024-03-23T01:31:32;14.65;;;2.45;;
64609;SDS011;51019;46.090;6.350;2024-03-23T01:33:58;11.15;;;3.55;;
64609;SDS011;51019;46.090;6.350;2024-03-23T01:36:25;10.85;;;3.53;;
64609;SDS011;51019;46.090;6.350;2024-03-23T01:38:51;10.20;;;3.30;;
64609;SDS011;51019;46.090;6.350;2024-03-23T01:41:18;12.82;;;3.78;;
64609;SDS011;51019;46.090;6.350;2024-03-23T01:43:45;8.60;;;2.30;;
64609;SDS011;51019;46.090;6.350;2024-03-23T01:46:14;12.85;;;3.72;;
64609;SDS011;51019;46.090;6.350;2024-03-23T01:48:40;12.45;;;3.95;;
64609;SDS011;51019;46.090;6.350;2024-03-23T01:51:07;11.55;;;3.80;;
64609;SDS011;51019;46.090;6.350;2024-03-23T01:53:33;13.45;;;3.95;;
64609;SDS011;51019;46.090;6.350;2024-03-23T01:56:00;11.85;;;2.58;;
64609;SDS011;51019;46.090;6.350;2024-03-23T01:58:27;14.35;;;3.92;;
64609;SDS011;51019;46.090;6.350;2024-03-23T02:00:54;8.35;;;2.63;;
64609;SDS011;51019;46.090;6.350;2024-03-23T02:03:24;12.20;;;3.60;;
64609;SDS011;51019;46.090;6.350;2024-03-23T02:05:52;11.18;;;3.50;;
64609;SDS011;51019;46.090;6.350;2024-03-23T02:08:19;10.70;;;3.30;;
64609;SDS011;51019;46.090;6.350;2024-03-23T02:10:47;7.82;;;2.20;;
64609;SDS011;51019;46.090;6.350;2024-03-23T02:13:14;12.40;;;3.42;;
64609;SDS011;51019;46.090;6.350;2024-03-23T02:15:41;11.18;;;3.30;;
64609;SDS011;51019;46.090;6.350;2024-03-23T02:18:07;10.77;;;2.97;;
64609;SDS011;51019;46.090;6.350;2024-03-23T02:20:37;14.55;;;3.30;;
64609;SDS011;51019;46.090;6.350;2024-03-23T02:23:05;9.95;;;3.00;;
64609;SDS011;51019;46.090;6.350;2024-03-23T02:25:32;11.70;;;3.20;;
64609;SDS011;51019;46.090;6.350;2024-03-23T02:27:58;11.18;;;2.90;;
64609;SDS011;51019;46.090;6.350;2024-03-23T02:30:25;15.98;;;3.60;;
64609;SDS011;51019;46.090;6.350;2024-03-23T02:32:51;11.25;;;3.38;;
64609;SDS011;51019;46.090;6.350;2024-03-23T02:35:18;10.82;;;3.15;;
64609;SDS011;51019;46.090;6.350;2024-03-23T02:37:46;11.90;;;3.60;;
64609;SDS011;51019;46.090;6.350;2024-03-23T02:40:15;10.60;;;3.30;;
64609;SDS011;51019;46.090;6.350;2024-03-23T02:42:41;10.75;;;3.28;;
64609;SDS011;51019;46.090;6.350;2024-03-23T02:45:08;13.40;;;3.92;;
64609;SDS011;51019;46.090;6.350;2024-03-23T02:47:34;11.52;;;3.60;;
64609;SDS011;51019;46.090;6.350;2024-03-23T02:50:01;13.65;;;3.63;;
64609;SDS011;51019;46.090;6.350;2024-03-23T02:52:27;11.40;;;3.40;;
64609;SDS011;51019;46.090;6.350;2024-03-23T02:54:54;10.93;;;3.45;;
64609;SDS011;51019;46.090;6.350;2024-03-23T02:57:22;12.10;;;3.63;;
64609;SDS011;51019;46.090;6.350;2024-03-23T02:59:49;13.13;;;3.40;;
64609;SDS011;51019;46.090;6.350;2024-03-23T03:02:15;10.75;;;3.40;;
64609;SDS011;51019;46.090;6.350;2024-03-23T03:04:42;11.05;;;3.40;;
64609;SDS011;51019;46.090;6.350;2024-03-23T03:07:08;10.63;;;3.30;;
64609;SDS011;51019;46.090;6.350;2024-03-23T03:09:35;13.13;;;3.97;;
64609;SDS011;51019;46.090;6.350;2024-03-23T03:12:01;11.70;;;3.40;;
64609;SDS011;51019;46.090;6.350;2024-03-23T03:14:30;11.25;;;3.35;;
64609;SDS011;51019;46.090;6.350;2024-03-23T03:16:56;8.80;;;2.60;;
64609;SDS011;51019;46.090;6.350;2024-03-23T03:19:23;9.98;;;3.30;;
64609;SDS011;51019;46.090;6.350;2024-03-23T03:21:49;12.45;;;3.75;;
64609;SDS011;51019;46.090;6.350;2024-03-23T03:24:16;11.65;;;3.30;;
64609;SDS011;51019;46.090;6.350;2024-03-23T03:26:42;13.80;;;3.78;;
64609;SDS011;51019;46.090;6.350;2024-03-23T03:29:09;12.02;;;3.58;;
64609;SDS011;51019;46.090;6.350;2024-03-23T03:31:46;11.85;;;3.50;;
64609;SDS011;51019;46.090;6.350;2024-03-23T03:34:15;12.63;;;3.50;;
64609;SDS011;51019;46.090;6.350;2024-03-23T03:36:41;10.27;;;3.38;;
64609;SDS011;51019;46.090;6.350;2024-03-23T03:39:07;15.07;;;3.53;;
64609;SDS011;51019;46.090;6.350;2024-03-23T03:41:33;14.68;;;3.15;;
64609;SDS011;51019;46.090;6.350;2024-03-23T03:44:00;11.15;;;3.20;;
64609;SDS011;51019;46.090;6.350;2024-03-23T03:46:27;10.57;;;3.30;;
64609;SDS011;51019;46.090;6.350;2024-03-23T03:48:56;11.80;;;3.65;;
64609;SDS011;51019;46.090;6.350;2024-03-23T03:51:22;12.68;;;3.40;;
64609;SDS011;51019;46.090;6.350;2024-03-23T03:53:49;12.70;;;3.78;;
64609;SDS011;51019;46.090;6.350;2024-03-23T03:56:14;10.40;;;3.08;;
64609;SDS011;51019;46.090;6.350;2024-03-23T03:58:41;12.73;;;3.22;;
64609;SDS011;51019;46.090;6.350;2024-03-23T04:01:07;7.25;;;1.88;;
64609;SDS011;51019;46.090;6.350;2024-03-23T04:03:34;10.52;;;3.30;;
64609;SDS011;51019;46.090;6.350;2024-03-23T04:06:02;12.02;;;3.50;;
64609;SDS011;51019;46.090;6.350;2024-03-23T04:08:29;11.75;;;3.58;;
64609;SDS011;51019;46.090;6.350;2024-03-23T04:10:55;12.38;;;3.10;;
64609;SDS011;51019;46.090;6.350;2024-03-23T04:13:22;12.73;;;3.67;;
64609;SDS011;51019;46.090;6.350;2024-03-23T04:15:48;10.57;;;3.15;;
64609;SDS011;51019;46.090;6.350;2024-03-23T04:18:15;10.48;;;3.08;;
64609;SDS011;51019;46.090;6.350;2024-03-23T04:20:41;12.13;;;3.28;;
64609;SDS011;51019;46.090;6.350;2024-03-23T04:23:10;13.75;;;3.60;;
64609;SDS011;51019;46.090;6.350;2024-03-23T04:25:36;10.38;;;3.03;;
64609;SDS011;51019;46.090;6.350;2024-03-23T04:28:03;11.70;;;3.15;;
64609;SDS011;51019;46.090;6.350;2024-03-23T04:30:29;13.23;;;3.33;;
64609;SDS011;51019;46.090;6.350;2024-03-23T04:32:57;10.75;;;3.03;;
64609;SDS011;51019;46.090;6.350;2024-03-23T04:35:23;12.30;;;3.33;;
64609;SDS011;51019;46.090;6.350;2024-03-23T04:37:51;10.40;;;3.45;;
64609;SDS011;51019;46.090;6.350;2024-03-23T04:40:20;14.25;;;3.78;;
64609;SDS011;51019;46.090;6.350;2024-03-23T04:42:47;12.52;;;2.53;;
64609;SDS011;51019;46.090;6.350;2024-03-23T04:45:14;10.75;;;3.65;;
64609;SDS011;51019;46.090;6.350;2024-03-23T04:47:41;15.20;;;4.57;;
64609;SDS011;51019;46.090;6.350;2024-03-23T04:50:12;12.65;;;4.38;;
64609;SDS011;51019;46.090;6.350;2024-03-23T04:52:39;11.55;;;4.00;;
64609;SDS011;51019;46.090;6.350;2024-03-23T04:55:05;12.00;;;4.15;;
64609;SDS011;51019;46.090;6.350;2024-03-23T04:57:34;12.65;;;4.55;;
64609;SDS011;51019;46.090;6.350;2024-03-23T05:00:00;12.65;;;4.45;;
64609;SDS011;51019;46.090;6.350;2024-03-23T05:02:29;14.15;;;4.80;;
64609;SDS011;51019;46.090;6.350;2024-03-23T05:04:55;12.48;;;4.38;;
64609;SDS011;51019;46.090;6.350;2024-03-23T05:07:23;14.10;;;4.10;;
64609;SDS011;51019;46.090;6.350;2024-03-23T05:09:49;13.40;;;4.25;;
64609;SDS011;51019;46.090;6.350;2024-03-23T05:12:16;12.05;;;4.38;;
64609;SDS011;51019;46.090;6.350;2024-03-23T05:14:43;12.52;;;4.63;;
64609;SDS011;51019;46.090;6.350;2024-03-23T05:17:10;13.68;;;4.38;;
64609;SDS011;51019;46.090;6.350;2024-03-23T05:19:36;14.02;;;4.13;;
64609;SDS011;51019;46.090;6.350;2024-03-23T05:22:03;11.85;;;4.18;;
64609;SDS011;51019;46.090;6.350;2024-03-23T05:24:29;15.18;;;4.05;;
64609;SDS011;51019;46.090;6.350;2024-03-23T05:26:56;11.85;;;3.80;;
64609;SDS011;51019;46.090;6.350;2024-03-23T05:29:24;11.35;;;4.00;;
64609;SDS011;51019;46.090;6.350;2024-03-23T05:31:53;12.80;;;4.00;;
64609;SDS011;51019;46.090;6.350;2024-03-23T05:34:21;11.77;;;4.10;;
64609;SDS011;51019;46.090;6.350;2024-03-23T05:36:48;13.88;;;4.55;;
64609;SDS011;51019;46.090;6.350;2024-03-23T05:39:16;14.15;;;4.35;;
64609;SDS011;51019;46.090;6.350;2024-03-23T05:41:43;13.77;;;4.45;;
64609;SDS011;51019;46.090;6.350;2024-03-23T05:44:09;11.63;;;4.47;;
64609;SDS011;51019;46.090;6.350;2024-03-23T05:46:37;11.90;;;4.82;;
64609;SDS011;51019;46.090;6.350;2024-03-23T05:49:05;12.73;;;4.55;;
64609;SDS011;51019;46.090;6.350;2024-03-23T05:51:32;13.68;;;4.55;;
64609;SDS011;51019;46.090;6.350;2024-03-23T05:53:58;12.80;;;4.78;;
64609;SDS011;51019;46.090;6.350;2024-03-23T05:56:26;12.35;;;4.28;;
64609;SDS011;51019;46.090;6.350;2024-03-23T05:58:52;13.68;;;5.45;;
64609;SDS011;51019;46.090;6.350;2024-03-23T06:01:19;13.73;;;5.10;;
64609;SDS011;51019;46.090;6.350;2024-03-23T06:03:45;13.60;;;5.05;;
64609;SDS011;51019;46.090;6.350;2024-03-23T06:06:14;12.85;;;5.10;;
64609;SDS011;51019;46.090;6.350;2024-03-23T06:08:40;13.60;;;5.50;;
64609;SDS011;51019;46.090;6.350;2024-03-23T06:11:07;12.90;;;5.13;;
64609;SDS011;51019;46.090;6.350;2024-03-23T06:13:33;10.77;;;3.38;;
64609;SDS011;51019;46.090;6.350;2024-03-23T06:16:00;13.40;;;5.35;;
64609;SDS011;51019;46.090;6.350;2024-03-23T06:18:26;15.35;;;6.03;;
64609;SDS011;51019;46.090;6.350;2024-03-23T06:20:53;13.63;;;5.72;;
64609;SDS011;51019;46.090;6.350;2024-03-23T06:23:21;14.98;;;6.32;;
64609;SDS011;51019;46.090;6.350;2024-03-23T06:25:48;14.80;;;6.38;;
64609;SDS011;51019;46.090;6.350;2024-03-23T06:28:14;18.17;;;7.07;;
64609;SDS011;51019;46.090;6.350;2024-03-23T06:30:41;13.95;;;6.68;;
64609;SDS011;51019;46.090;6.350;2024-03-23T06:33:07;7.40;;;2.83;;
64609;SDS011;51019;46.090;6.350;2024-03-23T06:35:34;13.50;;;6.28;;
64609;SDS011;51019;46.090;6.350;2024-03-23T06:38:00;17.45;;;6.88;;
64609;SDS011;51019;46.090;6.350;2024-03-23T06:40:29;14.48;;;6.35;;
64609;SDS011;51019;46.090;6.350;2024-03-23T06:43:07;16.08;;;6.32;;
64609;SDS011;51019;46.090;6.350;2024-03-23T06:45:35;15.75;;;6.63;;
64609;SDS011;51019;46.090;6.350;2024-03-23T06:48:02;13.55;;;6.03;;
64609;SDS011;51019;46.090;6.350;2024-03-23T06:50:36;13.52;;;5.97;;
64609;SDS011;51019;46.090;6.350;2024-03-23T06:53:03;14.52;;;5.95;;
64609;SDS011;51019;46.090;6.350;2024-03-23T06:55:32;13.90;;;6.30;;
64609;SDS011;51019;46.090;6.350;2024-03-23T06:57:59;13.32;;;6.68;;
64609;SDS011;51019;46.090;6.350;2024-03-23T07:00:25;15.50;;;7.60;;
64609;SDS011;51019;46.090;6.350;2024-03-23T07:02:53;13.90;;;6.63;;
64609;SDS011;51019;46.090;6.350;2024-03-23T07:05:18;16.05;;;7.65;;
64609;SDS011;51019;46.090;6.350;2024-03-23T07:07:47;14.23;;;6.47;;
64609;SDS011;51019;46.090;6.350;2024-03-23T07:10:14;14.73;;;7.10;;
64609;SDS011;51019;46.090;6.350;2024-03-23T07:12:43;15.88;;;7.72;;
64609;SDS011;51019;46.090;6.350;2024-03-23T07:15:09;15.70;;;7.63;;
64609;SDS011;51019;46.090;6.350;2024-03-23T07:17:37;16.00;;;7.88;;
64609;SDS011;51019;46.090;6.350;2024-03-23T07:20:05;14.48;;;7.07;;
64609;SDS011;51019;46.090;6.350;2024-03-23T07:22:35;16.08;;;7.47;;
64609;SDS011;51019;46.090;6.350;2024-03-23T07:25:05;15.30;;;6.82;;
64609;SDS011;51019;46.090;6.350;2024-03-23T07:27:35;15.13;;;7.22;;
64609;SDS011;51019;46.090;6.350;2024-03-23T07:30:04;15.10;;;6.30;;
64609;SDS011;51019;46.090;6.350;2024-03-23T07:32:32;13.02;;;5.72;;
64609;SDS011;51019;46.090;6.350;2024-03-23T07:34:58;12.95;;;5.95;;
64609;SDS011;51019;46.090;6.350;2024-03-23T07:37:25;15.20;;;6.47;;
64609;SDS011;51019;46.090;6.350;2024-03-23T07:39:51;15.20;;;6.60;;
64609;SDS011;51019;46.090;6.350;2024-03-23T07:42:18;14.02;;;6.25;;
64609;SDS011;51019;46.090;6.350;2024-03-23T07:44:44;12.48;;;5.60;;
64609;SDS011;51019;46.090;6.350;2024-03-23T07:47:14;13.73;;;5.18;;
64609;SDS011;51019;46.090;6.350;2024-03-23T07:49:40;14.65;;;5.90;;
64609;SDS011;51019;46.090;6.350;2024-03-23T07:52:07;13.80;;;5.95;;
64609;SDS011;51019;46.090;6.350;2024-03-23T07:54:33;12.88;;;5.43;;
64609;SDS011;51019;46.090;6.350;2024-03-23T07:57:01;13.00;;;4.57;;
64609;SDS011;51019;46.090;6.350;2024-03-23T07:59:28;12.85;;;5.60;;
64609;SDS011;51019;46.090;6.350;2024-03-23T08:01:59;12.75;;;4.75;;
64609;SDS011;51019;46.090;6.350;2024-03-23T08:04:27;11.48;;;4.32;;
64609;SDS011;51019;46.090;6.350;2024-03-23T08:06:55;13.20;;;4.88;;
64609;SDS011;51019;46.090;6.350;2024-03-23T08:09:22;11.70;;;4.50;;
64609;SDS011;51019;46.090;6.350;2024-03-23T08:11:50;13.23;;;5.00;;
64609;SDS011;51019;46.090;6.350;2024-03-23T08:14:16;12.13;;;4.40;;
64609;SDS011;51019;46.090;6.350;2024-03-23T08:16:44;11.45;;;3.90;;
64609;SDS011;51019;46.090;6.350;2024-03-23T08:19:15;10.90;;;2.90;;
64609;SDS011;51019;46.090;6.350;2024-03-23T08:21:47;7.38;;;2.33;;
64609;SDS011;51019;46.090;6.350;2024-03-23T08:24:13;5.15;;;1.80;;
64609;SDS011;51019;46.090;6.350;2024-03-23T08:26:41;7.47;;;1.77;;
64609;SDS011;51019;46.090;6.350;2024-03-23T08:29:10;0.70;;;0.70;;
64609;SDS011;51019;46.090;6.350;2024-03-23T08:31:47;1.92;;;0.70;;
64609;SDS011;51019;46.090;6.350;2024-03-23T08:34:14;3.97;;;1.50;;
64609;SDS011;51019;46.090;6.350;2024-03-23T08:36:42;6.97;;;1.70;;
64609;SDS011;51019;46.090;6.350;2024-03-23T08:39:12;5.85;;;1.73;;
64609;SDS011;51019;46.090;6.350;2024-03-23T08:41:41;1.88;;;0.90;;
64609;SDS011;51019;46.090;6.350;2024-03-23T08:44:11;3.55;;;1.00;;
64609;SDS011;51019;46.090;6.350;2024-03-23T08:46:38;4.03;;;1.20;;
64609;SDS011;51019;46.090;6.350;2024-03-23T08:49:04;6.28;;;1.60;;
64609;SDS011;51019;46.090;6.350;2024-03-23T08:51:32;6.22;;;1.63;;
64609;SDS011;51019;46.090;6.350;2024-03-23T08:53:58;2.97;;;1.10;;
64609;SDS011;51019;46.090;6.350;2024-03-23T08:56:27;6.80;;;1.80;;
64609;SDS011;51019;46.090;6.350;2024-03-23T08:58:53;7.38;;;1.65;;
64609;SDS011;51019;46.090;6.350;2024-03-23T09:01:21;3.60;;;1.40;;
64609;SDS011;51019;46.090;6.350;2024-03-23T09:03:48;4.10;;;1.40;;
64609;SDS011;51019;46.090;6.350;2024-03-23T09:06:16;8.02;;;1.50;;
64609;SDS011;51019;46.090;6.350;2024-03-23T09:08:42;4.22;;;1.40;;
64609;SDS011;51019;46.090;6.350;2024-03-23T09:11:10;4.10;;;1.25;;
64609;SDS011;51019;46.090;6.350;2024-03-23T09:13:38;4.95;;;1.35;;
64609;SDS011;51019;46.090;6.350;2024-03-23T09:16:06;2.85;;;1.30;;
64609;SDS011;51019;46.090;6.350;2024-03-23T09:18:35;4.45;;;1.02;;
64609;SDS011;51019;46.090;6.350;2024-03-23T09:21:03;5.10;;;1.40;;
64609;SDS011;51019;46.090;6.350;2024-03-23T09:23:29;4.32;;;1.40;;
64609;SDS011;51019;46.090;6.350;2024-03-23T09:25:56;4.80;;;1.35;;
64609;SDS011;51019;46.090;6.350;2024-03-23T09:28:22;3.60;;;1.45;;
64609;SDS011;51019;46.090;6.350;2024-03-23T09:30:51;6.32;;;1.60;;
64609;SDS011;51019;46.090;6.350;2024-03-23T09:33:17;6.45;;;1.55;;
64609;SDS011;51019;46.090;6.350;2024-03-23T09:35:44;4.35;;;1.38;;
64609;SDS011;51019;46.090;6.350;2024-03-23T09:38:10;4.45;;;1.20;;
64609;SDS011;51019;46.090;6.350;2024-03-23T09:40:40;7.43;;;1.30;;
64609;SDS011;51019;46.090;6.350;2024-03-23T09:43:09;4.13;;;1.40;;
64609;SDS011;51019;46.090;6.350;2024-03-23T09:45:38;3.58;;;1.30;;
64609;SDS011;51019;46.090;6.350;2024-03-23T09:48:08;3.03;;;1.20;;
64609;SDS011;51019;46.090;6.350;2024-03-23T09:50:36;5.20;;;1.63;;
64609;SDS011;51019;46.090;6.350;2024-03-23T09:53:03;5.63;;;1.65;;
64609;SDS011;51019;46.090;6.350;2024-03-23T09:55:30;4.43;;;1.58;;
64609;SDS011;51019;46.090;6.350;2024-03-23T09:57:56;4.15;;;1.40;;
64609;SDS011;51019;46.090;6.350;2024-03-23T10:00:23;9.68;;;1.80;;
64609;SDS011;51019;46.090;6.350;2024-03-23T10:02:49;5.25;;;1.55;;
64609;SDS011;51019;46.090;6.350;2024-03-23T10:05:21;5.00;;;1.30;;
64609;SDS011;51019;46.090;6.350;2024-03-23T10:07:49;4.70;;;1.63;;
64609;SDS011;51019;46.090;6.350;2024-03-23T10:10:16;12.30;;;2.45;;
64609;SDS011;51019;46.090;6.350;2024-03-23T10:12:43;4.93;;;1.50;;
64609;SDS011;51019;46.090;6.350;2024-03-23T10:15:17;9.05;;;1.70;;
64609;SDS011;51019;46.090;6.350;2024-03-23T10:17:44;6.57;;;1.40;;
64609;SDS011;51019;46.090;6.350;2024-03-23T10:20:12;7.90;;;1.60;;
64609;SDS011;51019;46.090;6.350;2024-03-23T10:22:39;5.35;;;1.48;;
64609;SDS011;51019;46.090;6.350;2024-03-23T10:25:08;9.80;;;1.70;;
64609;SDS011;51019;46.090;6.350;2024-03-23T10:27:34;8.13;;;1.73;;
64609;SDS011;51019;46.090;6.350;2024-03-23T10:30:11;8.23;;;1.70;;
64609;SDS011;51019;46.090;6.350;2024-03-23T10:32:39;9.20;;;2.65;;
64609;SDS011;51019;46.090;6.350;2024-03-23T10:35:16;11.82;;;2.35;;
64609;SDS011;51019;46.090;6.350;2024-03-23T10:37:46;10.82;;;2.30;;
64609;SDS011;51019;46.090;6.350;2024-03-23T10:40:14;10.43;;;2.38;;
64609;SDS011;51019;46.090;6.350;2024-03-23T10:42:41;11.00;;;2.38;;
64609;SDS011;51019;46.090;6.350;2024-03-23T10:45:09;9.20;;;2.25;;
64609;SDS011;51019;46.090;6.350;2024-03-23T10:47:35;10.43;;;2.10;;
64609;SDS011;51019;46.090;6.350;2024-03-23T10:50:03;10.07;;;1.98;;
64609;SDS011;51019;46.090;6.350;2024-03-23T10:52:30;10.77;;;2.70;;
64609;SDS011;51019;46.090;6.350;2024-03-23T10:54:59;11.55;;;2.67;;
64609;SDS011;51019;46.090;6.350;2024-03-23T10:57:31;10.93;;;1.95;;
64609;SDS011;51019;46.090;6.350;2024-03-23T11:00:04;10.07;;;2.00;;
64609;SDS011;51019;46.090;6.350;2024-03-23T11:02:32;11.50;;;2.15;;
64609;SDS011;51019;46.090;6.350;2024-03-23T11:04:58;9.18;;;2.17;;
64609;SDS011;51019;46.090;6.350;2024-03-23T11:07:28;10.63;;;2.08;;
64609;SDS011;51019;46.090;6.350;2024-03-23T11:09:56;9.20;;;2.00;;
64609;SDS011;51019;46.090;6.350;2024-03-23T11:12:30;9.52;;;2.25;;
64609;SDS011;51019;46.090;6.350;2024-03-23T11:14:59;10.32;;;2.20;;
64609;SDS011;51019;46.090;6.350;2024-03-23T11:17:28;10.73;;;2.10;;
64609;SDS011;51019;46.090;6.350;2024-03-23T11:19:55;11.32;;;2.28;;
64609;SDS011;51019;46.090;6.350;2024-03-23T11:22:41;11.75;;;2.33;;
64609;SDS011;51019;46.090;6.350;2024-03-23T11:25:18;11.65;;;2.45;;
64609;SDS011;51019;46.090;6.350;2024-03-23T11:27:49;11.52;;;2.33;;
64609;SDS011;51019;46.090;6.350;2024-03-23T11:30:16;5.72;;;1.45;;
64609;SDS011;51019;46.090;6.350;2024-03-23T11:32:45;8.95;;;1.98;;
64609;SDS011;51019;46.090;6.350;2024-03-23T11:35:25;8.43;;;1.98;;
64609;SDS011;51019;46.090;6.350;2024-03-23T11:38:08;10.48;;;2.20;;
64609;SDS011;51019;46.090;6.350;2024-03-23T11:40:35;10.10;;;2.20;;
64609;SDS011;51019;46.090;6.350;2024-03-23T11:43:06;10.07;;;2.30;;
64609;SDS011;51019;46.090;6.350;2024-03-23T11:45:36;10.93;;;2.20;;
64609;SDS011;51019;46.090;6.350;2024-03-23T11:48:09;10.70;;;2.45;;
64609;SDS011;51019;46.090;6.350;2024-03-23T11:50:39;10.88;;;2.70;;
64609;SDS011;51019;46.090;6.350;2024-03-23T11:53:08;10.50;;;2.20;;
64609;SDS011;51019;46.090;6.350;2024-03-23T11:55:47;11.45;;;2.35;;
64609;SDS011;51019;46.090;6.350;2024-03-23T11:58:17;9.07;;;1.90;;
64609;SDS011;51019;46.090;6.350;2024-03-23T12:00:50;12.23;;;2.63;;
64609;SDS011;51019;46.090;6.350;2024-03-23T12:03:19;8.23;;;2.25;;
64609;SDS011;51019;46.090;6.350;2024-03-23T12:05:50;10.43;;;2.58;;
64609;SDS011;51019;46.090;6.350;2024-03-23T12:08:19;10.32;;;2.30;;
64609;SDS011;51019;46.090;6.350;2024-03-23T12:10:47;13.43;;;2.63;;
64609;SDS011;51019;46.090;6.350;2024-03-23T12:13:21;12.05;;;2.20;;
64609;SDS011;51019;46.090;6.350;2024-03-23T12:15:48;11.25;;;2.97;;
64609;SDS011;51019;46.090;6.350;2024-03-23T12:18:17;9.95;;;2.28;;
64609;SDS011;51019;46.090;6.350;2024-03-23T12:20:43;13.48;;;4.20;;
64609;SDS011;51019;46.090;6.350;2024-03-23T12:23:11;10.73;;;2.20;;
64609;SDS011;51019;46.090;6.350;2024-03-23T12:25:38;13.82;;;2.30;;
64609;SDS011;51019;46.090;6.350;2024-03-23T12:28:06;11.43;;;2.20;;
64609;SDS011;51019;46.090;6.350;2024-03-23T12:30:35;12.38;;;2.75;;
64609;SDS011;51019;46.090;6.350;2024-03-23T12:33:08;11.68;;;2.20;;
64609;SDS011;51019;46.090;6.350;2024-03-23T12:35:34;10.77;;;2.25;;
64609;SDS011;51019;46.090;6.350;2024-03-23T12:41:22;12.52;;;2.53;;
64609;SDS011;51019;46.090;6.350;2024-03-23T12:43:50;12.07;;;2.40;;
64609;SDS011;51019;46.090;6.350;2024-03-23T12:46:26;11.95;;;2.28;;
64609;SDS011;51019;46.090;6.350;2024-03-23T12:48:54;11.55;;;2.65;;
64609;SDS011;51019;46.090;6.350;2024-03-23T12:51:20;14.60;;;4.10;;
64609;SDS011;51019;46.090;6.350;2024-03-23T12:53:47;12.68;;;2.30;;
64609;SDS011;51019;46.090;6.350;2024-03-23T12:56:16;11.63;;;2.58;;
64609;SDS011;51019;46.090;6.350;2024-03-23T12:58:44;10.60;;;2.55;;
64609;SDS011;51019;46.090;6.350;2024-03-23T13:01:10;10.27;;;2.15;;
64609;SDS011;51019;46.090;6.350;2024-03-23T13:03:44;14.02;;;3.55;;
64609;SDS011;51019;46.090;6.350;2024-03-23T13:06:12;11.40;;;2.47;;
64609;SDS011;51019;46.090;6.350;2024-03-23T13:08:52;9.90;;;2.35;;
64609;SDS011;51019;46.090;6.350;2024-03-23T13:11:19;11.02;;;2.42;;
64609;SDS011;51019;46.090;6.350;2024-03-23T13:13:47;15.43;;;3.60;;
64609;SDS011;51019;46.090;6.350;2024-03-23T13:16:13;13.38;;;2.85;;
64609;SDS011;51019;46.090;6.350;2024-03-23T13:18:43;11.18;;;2.38;;
64609;SDS011;51019;46.090;6.350;2024-03-23T13:21:10;18.10;;;4.13;;
64609;SDS011;51019;46.090;6.350;2024-03-23T13:23:38;11.85;;;2.40;;
64609;SDS011;51019;46.090;6.350;2024-03-23T13:26:07;9.20;;;2.33;;
64609;SDS011;51019;46.090;6.350;2024-03-23T13:28:36;13.77;;;2.75;;
64609;SDS011;51019;46.090;6.350;2024-03-23T13:31:02;12.23;;;2.78;;
64609;SDS011;51019;46.090;6.350;2024-03-23T13:33:35;9.88;;;2.42;;
64609;SDS011;51019;46.090;6.350;2024-03-23T13:36:07;11.05;;;2.35;;
64609;SDS011;51019;46.090;6.350;2024-03-23T13:38:34;9.95;;;2.33;;
64609;SDS011;51019;46.090;6.350;2024-03-23T13:41:00;11.82;;;2.40;;
64609;SDS011;51019;46.090;6.350;2024-03-23T13:43:29;12.75;;;2.40;;
64609;SDS011;51019;46.090;6.350;2024-03-23T13:45:56;12.15;;;2.30;;
64609;SDS011;51019;46.090;6.350;2024-03-23T13:48:24;11.57;;;2.53;;
64609;SDS011;51019;46.090;6.350;2024-03-23T13:51:00;10.88;;;2.10;;
64609;SDS011;51019;46.090;6.350;2024-03-23T13:53:30;10.35;;;2.25;;
64609;SDS011;51019;46.090;6.350;2024-03-23T13:55:59;12.70;;;2.38;;
64609;SDS011;51019;46.090;6.350;2024-03-23T13:58:28;11.82;;;2.60;;
64609;SDS011;51019;46.090;6.350;2024-03-23T14:00:56;11.57;;;2.42;;
64609;SDS011;51019;46.090;6.350;2024-03-23T14:03:24;10.50;;;1.95;;
64609;SDS011;51019;46.090;6.350;2024-03-23T14:05:50;12.27;;;2.50;;
64609;SDS011;51019;46.090;6.350;2024-03-23T14:08:19;11.88;;;2.75;;
64609;SDS011;51019;46.090;6.350;2024-03-23T14:10:48;9.73;;;2.00;;
64609;SDS011;51019;46.090;6.350;2024-03-23T14:13:16;13.52;;;2.60;;
64609;SDS011;51019;46.090;6.350;2024-03-23T14:15:43;9.68;;;2.10;;
64609;SDS011;51019;46.090;6.350;2024-03-23T14:18:10;11.65;;;2.50;;
64609;SDS011;51019;46.090;6.350;2024-03-23T14:20:36;13.52;;;2.50;;
64609;SDS011;51019;46.090;6.350;2024-03-23T14:23:04;12.35;;;2.35;;
64609;SDS011;51019;46.090;6.350;2024-03-23T14:25:31;12.73;;;2.33;;
64609;SDS011;51019;46.090;6.350;2024-03-23T14:28:02;9.45;;;2.17;;
64609;SDS011;51019;46.090;6.350;2024-03-23T14:30:28;9.63;;;2.55;;
64609;SDS011;51019;46.090;6.350;2024-03-23T14:32:56;9.57;;;2.28;;
64609;SDS011;51019;46.090;6.350;2024-03-23T14:35:23;10.93;;;2.40;;
64609;SDS011;51019;46.090;6.350;2024-03-23T14:37:51;10.30;;;2.38;;
64609;SDS011;51019;46.090;6.350;2024-03-23T14:40:18;10.77;;;2.40;;
64609;SDS011;51019;46.090;6.350;2024-03-23T14:42:46;9.15;;;2.25;;
64609;SDS011;51019;46.090;6.350;2024-03-23T14:45:15;11.07;;;2.33;;
64609;SDS011;51019;46.090;6.350;2024-03-23T14:47:42;11.23;;;2.05;;
64609;SDS011;51019;46.090;6.350;2024-03-23T14:50:10;10.95;;;2.38;;
64609;SDS011;51019;46.090;6.350;2024-03-23T14:52:40;11.38;;;2.17;;
64609;SDS011;51019;46.090;6.350;2024-03-23T14:55:07;10.88;;;2.22;;
64609;SDS011;51019;46.090;6.350;2024-03-23T14:57:39;10.10;;;2.30;;
64609;SDS011;51019;46.090;6.350;2024-03-23T15:00:06;9.00;;;2.00;;
64609;SDS011;51019;46.090;6.350;2024-03-23T15:02:37;11.30;;;2.25;;
64609;SDS011;51019;46.090;6.350;2024-03-23T15:05:04;10.35;;;1.98;;
64609;SDS011;51019;46.090;6.350;2024-03-23T15:07:34;9.63;;;1.90;;
64609;SDS011;51019;46.090;6.350;2024-03-23T15:10:00;9.40;;;2.05;;
64609;SDS011;51019;46.090;6.350;2024-03-23T15:12:30;13.50;;;2.33;;
64609;SDS011;51019;46.090;6.350;2024-03-23T15:14:58;9.35;;;2.08;;
64609;SDS011;51019;46.090;6.350;2024-03-23T15:17:27;8.63;;;1.95;;
64609;SDS011;51019;46.090;6.350;2024-03-23T15:19:54;12.82;;;3.15;;
64609;SDS011;51019;46.090;6.350;2024-03-23T15:22:23;13.25;;;2.20;;
64609;SDS011;51019;46.090;6.350;2024-03-23T15:24:50;10.05;;;2.13;;
64609;SDS011;51019;46.090;6.350;2024-03-23T15:27:18;10.57;;;2.08;;
64609;SDS011;51019;46.090;6.350;2024-03-23T15:29:44;7.05;;;1.00;;
64609;SDS011;51019;46.090;6.350;2024-03-23T15:32:11;9.95;;;2.20;;
64609;SDS011;51019;46.090;6.350;2024-03-23T15:34:39;13.68;;;2.42;;
64609;SDS011;51019;46.090;6.350;2024-03-23T15:37:10;8.63;;;1.92;;
64609;SDS011;51019;46.090;6.350;2024-03-23T15:39:40;10.38;;;2.10;;